Weather at Manuae Airport

Public forecast

Using degrees Celsius for public forecast. Weather courtesy of forecast.io.

Closest aviation weather report (METAR) to Manuae Airport

Closest report is Aitutaki Airport, 52.7 nm (97.6 km) WNW. Retrieved 2022/01/19 12:00 UTC (53 minutes ago):

NCAI 191200Z AUTO 16003KT //// ////// 26/24 Q1002

Closest aviation forecast (TAF) to Manuae Airport

Forecast is more than 12 hours old.

Closest forecast is Aitutaki Airport, 52.7 nm (97.6 km) WNW. Retrieved 2018/02/21 16:17 UTC (4 years ago):

TAF NCAI 211519Z 2116/2205 03012KT 9999 -SHRA SCT018 BKN015 BKN100 TEMPO 2116/2205 3000 TSRA BKN015 FEW018CB